Time;durP1;ratioP1;P1;durP2;ratioP2;P2;SDS_P1;SDS_P2;PMS_P1;PMS_P2;Temp;Humidity;BMP_temperature;BMP_pressure;BME280_temperature;BME280_humidity;BME280_pressure;Samples;Min_cycle;Max_cycle;Signal;HPM_P1;HPM_P2
2022/01/08 00:02:07;;;;;;;6.00;1.88;;;;;;;3.94;100.00;100066.78;4939035;28;20027;-69
2022/01/08 00:04:33;;;;;;;3.97;1.70;;;;;;;3.87;100.00;100069.16;4940357;29;20031;-69
2022/01/08 00:06:58;;;;;;;4.40;1.98;;;;;;;3.83;100.00;100060.28;4951533;29;20068;-69
2022/01/08 00:09:24;;;;;;;3.60;1.60;;;;;;;3.77;100.00;100066.09;4952490;28;20078;-69
2022/01/08 00:11:49;;;;;;;1.67;1.50;;;;;;;3.69;100.00;100075.72;4944300;29;20800;-69
2022/01/08 00:14:15;;;;;;;3.75;1.58;;;;;;;3.66;100.00;100071.81;4952122;28;20035;-69
2022/01/08 00:16:40;;;;;;;2.20;1.42;;;;;;;3.64;100.00;100084.66;4952135;28;20043;-69
2022/01/08 00:19:06;;;;;;;1.55;1.20;;;;;;;3.61;100.00;100082.66;4945654;28;20027;-69
2022/01/08 00:21:33;;;;;;;6.13;2.03;;;;;;;3.63;100.00;100077.00;4950285;29;20117;-69
2022/01/08 00:23:59;;;;;;;2.00;1.55;;;;;;;3.56;100.00;100072.19;4948090;28;20027;-69
2022/01/08 00:26:25;;;;;;;3.35;2.03;;;;;;;3.56;100.00;100069.50;4949682;28;20435;-69
2022/01/08 00:28:50;;;;;;;3.17;1.60;;;;;;;3.54;100.00;100076.28;4951102;28;20049;-69
2022/01/08 00:31:15;;;;;;;2.75;1.58;;;;;;;3.61;100.00;100085.31;4952008;28;20027;-69
2022/01/08 00:33:41;;;;;;;3.15;1.40;;;;;;;3.71;100.00;100088.69;4947078;29;20130;-69
2022/01/08 00:36:07;;;;;;;5.40;1.63;;;;;;;3.74;100.00;100082.72;4951186;28;20038;-69
2022/01/08 00:38:34;;;;;;;6.80;2.35;;;;;;;3.71;100.00;100075.38;4950387;29;20050;-69
2022/01/08 00:40:59;;;;;;;3.17;1.55;;;;;;;3.74;100.00;100082.72;4948997;28;20054;-69
2022/01/08 00:43:25;;;;;;;2.58;1.48;;;;;;;3.82;100.00;100071.22;4946636;29;20027;-69
2022/01/08 00:45:50;;;;;;;2.17;1.48;;;;;;;3.89;100.00;100068.84;4943497;28;20059;-69
2022/01/08 00:48:15;;;;;;;3.42;1.80;;;;;;;3.77;100.00;100066.09;4950866;28;20031;-69
2022/01/08 00:50:41;;;;;;;1.55;1.00;;;;;;;3.89;100.00;100063.53;4953262;28;20416;-69
2022/01/08 00:53:06;;;;;;;2.85;1.90;;;;;;;3.88;100.00;100065.41;4949259;28;20019;-69
2022/01/08 00:55:32;;;;;;;3.70;1.90;;;;;;;3.93;100.00;100069.75;4952336;28;20127;-69
2022/01/08 00:57:57;;;;;;;2.95;1.90;;;;;;;3.77;100.00;100071.44;4950531;29;20050;-69
2022/01/08 01:00:23;;;;;;;2.80;2.00;;;;;;;3.77;100.00;100066.09;4949601;28;20657;-69
2022/01/08 01:02:48;;;;;;;3.08;1.65;;;;;;;3.78;100.00;100063.13;4950580;28;20149;-69
2022/01/08 01:05:14;;;;;;;8.13;2.35;;;;;;;3.84;100.00;100072.47;4951634;28;20515;-69
2022/01/08 01:07:40;;;;;;;3.53;2.08;;;;;;;3.80;100.00;100068.91;4948601;28;20054;-69
2022/01/08 01:10:07;;;;;;;3.80;1.83;;;;;;;3.88;100.00;100061.94;4951229;28;20035;-69
2022/01/08 01:12:33;;;;;;;2.47;1.38;;;;;;;3.82;100.00;100068.56;4949828;29;20046;-69
2022/01/08 01:14:58;;;;;;;2.95;1.70;;;;;;;3.78;100.00;100072.97;4951735;28;20031;-69
2022/01/08 01:17:24;;;;;;;2.50;1.80;;;;;;;3.72;100.00;100074.28;4947739;29;20038;-69
2022/01/08 01:19:49;;;;;;;1.98;1.30;;;;;;;3.75;100.00;100074.44;4951700;28;20035;-69
2022/01/08 01:22:18;;;;;;;3.72;1.85;;;;;;;3.78;100.00;100067.66;4950072;29;20478;-69
2022/01/08 01:24:45;;;;;;;2.53;1.65;;;;;;;3.83;100.00;100076.25;4949227;28;20110;-69
2022/01/08 01:27:42;;;;;;;4.35;2.38;;;;;;;3.80;100.00;100073.44;4949457;28;20082;-69
2022/01/08 01:31:00;;;;;;;2.67;1.45;;;;;;;3.84;100.00;100071.69;4952043;28;20095;-69
2022/01/08 01:41:32;;;;;;;2.95;1.80;;;;;;;3.91;100.00;100078.06;4947105;29;20047;-70
2022/01/08 01:47:01;;;;;;;2.97;1.10;;;;;;;4.07;100.00;100078.25;4951547;28;20031;-70
2022/01/08 01:49:38;;;;;;;4.25;2.25;;;;;;;3.95;100.00;100070.97;4947312;29;20764;-70
2022/01/08 01:52:06;;;;;;;5.22;1.58;;;;;;;3.88;100.00;100073.38;4953009;28;20480;-69
2022/01/08 01:54:33;;;;;;;2.80;1.52;;;;;;;3.86;100.00;100066.81;4954910;29;20039;-69
2022/01/08 01:57:00;;;;;;;2.70;1.55;;;;;;;3.93;100.00;100067.09;4954931;28;20050;-68
2022/01/08 01:59:27;;;;;;;2.50;1.65;;;;;;;4.03;100.00;100069.34;4950226;29;20030;-70
2022/01/08 02:01:52;;;;;;;5.78;2.53;;;;;;;4.02;100.00;100079.25;4932884;29;20504;-70
2022/01/08 02:04:17;;;;;;;3.05;1.70;;;;;;;4.03;100.00;100069.34;4943972;29;20034;-70
2022/01/08 02:06:43;;;;;;;2.83;1.52;;;;;;;4.00;100.00;100073.47;4955290;29;20484;-70
2022/01/08 02:09:09;;;;;;;3.65;1.65;;;;;;;3.93;100.00;100067.09;4943186;28;20048;-70
2022/01/08 02:11:55;;;;;;;3.22;2.00;;;;;;;3.90;100.00;100075.72;4953000;29;20059;-69
2022/01/08 02:14:20;;;;;;;3.65;2.10;;;;;;;3.73;100.00;100076.63;4950749;29;20035;-70
2022/01/08 02:16:46;;;;;;;2.60;1.67;;;;;;;3.79;100.00;100070.00;4950500;28;20139;-70
2022/01/08 02:19:11;;;;;;;7.20;1.77;;;;;;;3.74;100.00;100069.41;4954866;29;20118;-70
2022/01/08 02:21:39;;;;;;;2.72;1.48;;;;;;;3.84;100.00;100063.69;4952294;28;20043;-70
2022/01/08 02:24:08;;;;;;;2.90;1.60;;;;;;;3.82;100.00;100074.69;4950325;28;20039;-69
2022/01/08 02:26:33;;;;;;;4.65;2.60;;;;;;;4.05;100.00;100072.47;4954703;28;20050;-70
2022/01/08 02:28:59;;;;;;;3.65;1.70;;;;;;;4.05;100.00;100062.59;4954158;28;20047;-69
2022/01/08 02:31:25;;;;;;;4.60;2.10;;;;;;;3.94;100.00;100066.78;4948744;29;20442;-69
2022/01/08 02:33:50;;;;;;;2.15;1.45;;;;;;;3.93;100.00;100065.19;4953748;28;20043;-69
2022/01/08 02:36:19;;;;;;;8.82;2.28;;;;;;;3.82;100.00;100071.22;4953285;28;20059;-70
2022/01/08 02:38:44;;;;;;;4.15;1.70;;;;;;;4.04;100.00;100065.59;4937886;29;20526;-69
2022/01/08 02:41:10;;;;;;;8.38;2.30;;;;;;;3.81;100.00;100067.03;4948111;28;20038;-69
2022/01/08 02:43:41;;;;;;;3.17;1.85;;;;;;;3.93;100.00;100062.53;4951120;29;20035;-69
2022/01/08 02:46:07;;;;;;;6.10;2.00;;;;;;;3.95;100.00;100062.22;4953897;29;20090;-69
2022/01/08 02:48:32;;;;;;;5.88;2.30;;;;;;;3.84;100.00;100066.38;4948881;29;20094;-69
2022/01/08 02:50:58;;;;;;;6.10;2.80;;;;;;;3.77;100.00;100066.91;4954197;28;20452;-69
2022/01/08 02:53:23;;;;;;;7.22;2.50;;;;;;;3.99;100.00;100063.13;4953018;29;20035;-69
2022/01/08 02:55:49;;;;;;;9.52;2.58;;;;;;;3.92;100.00;100076.97;4954115;28;20086;-69
2022/01/08 02:58:15;;;;;;;3.75;2.00;;;;;;;3.88;100.00;100070.72;4945021;28;20027;-69
2022/01/08 03:00:40;;;;;;;6.38;2.72;;;;;;;3.87;100.00;100055.09;4953669;29;20444;-69
2022/01/08 03:03:08;;;;;;;6.00;3.00;;;;;;;3.92;100.00;100063.66;4951667;28;20106;-69
2022/01/08 03:05:34;;;;;;;2.78;2.08;;;;;;;3.97;100.00;100062.69;4949166;28;20131;-69
2022/01/08 03:08:00;;;;;;;6.30;2.60;;;;;;;3.89;100.00;100058.19;4953102;28;20526;-69
2022/01/08 03:10:25;;;;;;;5.35;2.60;;;;;;;3.83;100.00;100054.16;4958455;28;20460;-69
2022/01/08 03:12:51;;;;;;;5.90;2.65;;;;;;;3.93;100.00;100057.22;4947126;28;20122;-69
2022/01/08 03:15:19;;;;;;;5.15;2.70;;;;;;;3.86;100.00;100070.28;4952848;28;20031;-68
2022/01/08 03:17:46;;;;;;;6.90;2.70;;;;;;;3.86;100.00;100061.50;4952917;28;20039;-68
2022/01/08 03:20:14;;;;;;;7.25;2.88;;;;;;;3.87;100.00;100060.41;4939303;28;20043;-68
2022/01/08 03:22:42;;;;;;;4.72;2.40;;;;;;;3.85;100.00;100057.28;4951704;28;20624;-68
2022/01/08 03:25:08;;;;;;;3.92;2.33;;;;;;;3.91;100.00;100056.00;4951931;28;20640;-69
2022/01/08 03:27:34;;;;;;;4.85;2.25;;;;;;;3.88;100.00;100053.97;4947401;29;20051;-68
2022/01/08 03:30:00;;;;;;;3.03;1.98;;;;;;;3.93;100.00;100054.53;4977203;28;20499;-68
2022/01/08 03:32:25;;;;;;;5.18;2.22;;;;;;;3.94;100.00;100053.44;4967070;28;20031;-68
2022/01/08 03:34:54;;;;;;;5.00;2.00;;;;;;;3.97;100.00;100062.69;4948886;28;20519;-68
2022/01/08 03:37:19;;;;;;;3.80;1.90;;;;;;;3.85;100.00;100058.06;4952164;29;20043;-69
2022/01/08 03:39:45;;;;;;;7.30;2.67;;;;;;;3.74;100.00;100072.84;4951971;28;20651;-68
2022/01/08 03:42:11;;;;;;;6.60;2.38;;;;;;;3.86;100.00;100078.25;4947915;28;20042;-68
2022/01/08 03:44:37;;;;;;;3.45;2.10;;;;;;;3.87;100.00;100074.47;4952351;28;20035;-68
2022/01/08 03:47:28;;;;;;;4.50;2.05;;;;;;;3.87;100.00;100084.38;4945247;28;20035;-69
2022/01/08 03:49:55;;;;;;;6.03;2.53;;;;;;;3.76;100.00;100075.97;4951688;29;20086;-68
2022/01/08 03:52:21;;;;;;;4.82;2.30;;;;;;;3.74;100.00;100072.84;4947100;29;20042;-68
2022/01/08 03:54:47;;;;;;;2.63;1.85;;;;;;;3.85;100.00;100076.72;4952277;28;20035;-68
2022/01/08 03:57:12;;;;;;;6.70;2.70;;;;;;;3.83;100.00;100075.47;4952004;29;20063;-68
2022/01/08 03:59:38;;;;;;;5.15;2.72;;;;;;;3.83;100.00;100078.13;4953283;29;20178;-69
2022/01/08 04:02:04;;;;;;;8.32;2.83;;;;;;;3.75;100.00;100073.63;4943034;29;20122;-69
2022/01/08 04:04:29;;;;;;;6.28;2.83;;;;;;;3.84;100.00;100077.00;4949833;28;20043;-68
2022/01/08 04:06:55;;;;;;;6.07;2.40;;;;;;;3.72;100.00;100076.97;4952987;29;20377;-68
2022/01/08 04:09:20;;;;;;;5.57;2.58;;;;;;;3.78;100.00;100072.97;4944597;29;20039;-68
2022/01/08 04:11:46;;;;;;;8.43;2.47;;;;;;;3.82;100.00;100076.56;4940369;28;20405;-69
2022/01/08 04:14:13;;;;;;;6.85;2.55;;;;;;;3.72;100.00;100076.97;4948673;29;20047;-68
2022/01/08 04:16:43;;;;;;;5.82;2.88;;;;;;;3.67;100.00;100069.94;4946585;28;20713;-68
2022/01/08 04:19:09;;;;;;;7.70;3.22;;;;;;;3.93;100.00;100067.09;4947859;29;20093;-69
2022/01/08 04:24:03;;;;;;;4.75;2.25;;;;;;;3.81;100.00;100072.34;4951142;28;20038;-69
2022/01/08 04:26:28;;;;;;;6.03;2.92;;;;;;;3.86;100.00;100072.94;4947182;28;20098;-69
2022/01/08 04:28:55;;;;;;;5.03;2.70;;;;;;;4.12;100.00;100062.09;4951156;29;20027;-69
2022/01/08 04:31:25;;;;;;;5.70;3.30;;;;;;;3.90;100.00;100054.41;4950379;28;20110;-69
2022/01/08 04:33:51;;;;;;;6.38;3.15;;;;;;;3.86;100.00;100069.47;4944537;28;20500;-69
2022/01/08 04:36:17;;;;;;;5.95;3.05;;;;;;;3.85;100.00;100058.06;4949101;28;20046;-69
2022/01/08 04:38:42;;;;;;;5.85;2.53;;;;;;;3.82;100.00;100052.59;4951167;29;20035;-69
2022/01/08 04:41:08;;;;;;;7.10;3.75;;;;;;;3.86;100.00;100040.19;4952227;28;20032;-69
2022/01/08 04:43:37;;;;;;;4.72;2.67;;;;;;;3.83;100.00;100059.50;4945202;28;20038;-69
2022/01/08 04:46:02;;;;;;;8.02;3.58;;;;;;;3.81;100.00;100051.06;4940449;28;20067;-69
2022/01/08 04:48:28;;;;;;;7.63;3.17;;;;;;;3.77;100.00;100042.16;4952144;29;20074;-69
2022/01/08 04:50:53;;;;;;;6.07;2.60;;;;;;;3.79;100.00;100042.59;4952332;28;20050;-69
2022/01/08 04:53:19;;;;;;;8.75;3.75;;;;;;;3.91;100.00;100045.34;4946576;28;20090;-69
2022/01/08 04:55:44;;;;;;;6.28;2.83;;;;;;;3.80;100.00;100046.81;4951212;28;20066;-69
2022/01/08 04:58:09;;;;;;;5.40;2.47;;;;;;;3.85;100.00;100039.44;4952905;28;20031;-69
2022/01/08 05:00:37;;;;;;;7.72;3.08;;;;;;;3.94;100.00;100061.44;4948965;28;20504;-69
2022/01/08 05:03:03;;;;;;;15.55;3.45;;;;;;;3.88;100.00;100056.63;4949804;28;20439;-69
2022/01/08 05:05:31;;;;;;;12.45;3.60;;;;;;;3.90;100.00;100059.75;4937077;28;20043;-69
2022/01/08 05:08:00;;;;;;;4.25;2.78;;;;;;;3.74;100.00;100050.78;4952078;28;20614;-69
2022/01/08 05:10:33;;;;;;;9.95;2.75;;;;;;;3.85;100.00;100057.28;4931724;29;20555;-69
2022/01/08 05:13:03;;;;;;;3.45;2.25;;;;;;;3.91;100.00;100051.44;4944038;29;20043;-69
2022/01/08 05:15:29;;;;;;;4.50;2.70;;;;;;;3.87;100.00;100055.84;4952187;28;20464;-69
2022/01/08 05:17:55;;;;;;;4.03;2.40;;;;;;;3.83;100.00;100054.16;4951642;28;20031;-69
2022/01/08 05:20:21;;;;;;;5.82;2.45;;;;;;;3.81;100.00;100059.03;4955104;28;20043;-69
2022/01/08 05:25:12;;;;;;;6.32;2.15;;;;;;;3.76;100.00;100043.25;4954426;28;20448;-69
2022/01/08 05:27:38;;;;;;;7.38;3.10;;;;;;;3.98;100.00;100054.38;4949157;28;20039;-69
2022/01/08 05:30:05;;;;;;;6.57;3.22;;;;;;;3.87;100.00;100057.75;4953287;29;20043;-69
2022/01/08 05:32:30;;;;;;;9.82;3.30;;;;;;;3.87;100.00;100061.16;4953357;29;20045;-69
2022/01/08 05:34:57;;;;;;;9.45;3.15;;;;;;;3.89;100.00;100050.22;4955207;29;20460;-69
2022/01/08 05:37:23;;;;;;;9.80;3.25;;;;;;;3.93;100.00;100048.47;4945189;29;20106;-69
2022/01/08 05:39:50;;;;;;;9.07;3.97;;;;;;;3.92;100.00;100057.53;4953626;29;20053;-69
2022/01/08 05:42:16;;;;;;;14.65;3.92;;;;;;;3.85;100.00;100065.28;4953941;28;20097;-69
2022/01/08 05:44:45;;;;;;;6.22;2.80;;;;;;;3.90;100.00;100063.19;4930765;29;20067;-69
2022/01/08 05:47:11;;;;;;;6.90;2.70;;;;;;;3.81;100.00;100069.69;4950485;28;20559;-69
2022/01/08 05:49:36;;;;;;;10.57;3.88;;;;;;;3.85;100.00;100059.94;4955199;29;20031;-69
2022/01/08 05:52:02;;;;;;;4.22;2.33;;;;;;;4.05;100.00;100061.81;4953436;29;20043;-69
2022/01/08 05:54:28;;;;;;;7.88;3.53;;;;;;;4.09;100.00;100065.38;4946479;28;20035;-69
2022/01/08 05:56:54;;;;;;;10.77;3.33;;;;;;;4.05;100.00;100067.94;4949178;29;20032;-69
2022/01/08 05:59:24;;;;;;;9.45;3.92;;;;;;;4.01;100.00;100074.22;4942595;29;20449;-69
2022/01/08 06:01:50;;;;;;;4.78;2.15;;;;;;;3.94;100.00;100079.31;4937463;29;20051;-69
2022/01/08 06:04:15;;;;;;;7.15;3.95;;;;;;;3.84;100.00;100088.44;4941260;29;20099;-69
2022/01/08 06:06:41;;;;;;;8.25;2.42;;;;;;;3.92;100.00;100086.84;4950225;28;20035;-69
2022/01/08 06:09:07;;;;;;;8.55;3.28;;;;;;;4.01;100.00;100076.88;4936068;29;20524;-69
2022/01/08 06:11:33;;;;;;;10.82;3.92;;;;;;;3.97;100.00;100082.09;4943535;28;20067;-69
2022/01/08 06:13:58;;;;;;;7.32;2.83;;;;;;;3.99;100.00;100095.09;4939296;28;20044;-69
2022/01/08 06:16:24;;;;;;;9.30;3.30;;;;;;;3.97;100.00;100092.75;4946217;29;20107;-69
2022/01/08 06:18:49;;;;;;;7.95;3.70;;;;;;;3.88;100.00;100091.25;4950208;28;20039;-69
2022/01/08 06:21:15;;;;;;;12.25;3.97;;;;;;;3.93;100.00;100085.75;4952907;28;20557;-69
2022/01/08 06:23:40;;;;;;;10.73;2.83;;;;;;;3.98;100.00;100096.19;4941767;29;21005;-69
2022/01/08 06:26:06;;;;;;;12.13;3.35;;;;;;;3.95;100.00;100102.94;4942572;29;20089;-69
2022/01/08 06:28:32;;;;;;;9.55;3.97;;;;;;;3.87;100.00;100093.13;4935157;29;20099;-69
2022/01/08 06:30:58;;;;;;;6.95;3.10;;;;;;;3.86;100.00;100101.44;4949211;28;20451;-69
2022/01/08 06:33:23;;;;;;;8.93;3.13;;;;;;;3.92;100.00;100100.16;4946240;28;20566;-69
2022/01/08 06:35:51;;;;;;;7.10;3.28;;;;;;;3.95;100.00;100104.84;4945885;28;20039;-69
2022/01/08 06:38:18;;;;;;;5.97;2.75;;;;;;;4.05;100.00;100117.75;4950112;28;20057;-69
2022/01/08 06:40:43;;;;;;;7.22;3.42;;;;;;;4.02;100.00;100121.06;4938034;29;20043;-69
2022/01/08 06:43:09;;;;;;;8.63;3.20;;;;;;;3.99;100.00;100116.41;4951464;28;20038;-69
2022/01/08 06:45:34;;;;;;;7.20;2.92;;;;;;;3.95;100.00;100132.22;4949535;28;20039;-69
2022/01/08 06:48:00;;;;;;;6.75;2.70;;;;;;;3.91;100.00;100136.63;4954660;28;20046;-69
2022/01/08 06:50:27;;;;;;;7.28;2.97;;;;;;;3.95;100.00;100134.91;4948042;29;20114;-69
2022/01/08 06:52:52;;;;;;;8.05;3.03;;;;;;;3.97;100.00;100129.25;4951034;29;20043;-69
2022/01/08 06:55:20;;;;;;;8.23;3.03;;;;;;;4.15;100.00;100130.69;4952083;29;20054;-70
2022/01/08 06:57:45;;;;;;;6.50;3.13;;;;;;;3.87;100.00;100135.72;4945999;29;20127;-69
2022/01/08 07:00:11;;;;;;;5.45;2.72;;;;;;;4.00;100.00;100144.59;4936883;29;20114;-69
2022/01/08 07:02:37;;;;;;;8.70;2.83;;;;;;;3.94;100.00;100144.00;4940567;29;20597;-69
2022/01/08 07:05:02;;;;;;;8.70;3.85;;;;;;;3.85;100.00;100127.31;4945854;28;20046;-69
2022/01/08 07:07:28;;;;;;;5.93;2.83;;;;;;;4.04;100.00;100134.84;4944480;29;20046;-69
2022/01/08 07:09:53;;;;;;;10.77;2.63;;;;;;;3.95;100.00;100134.13;4940062;28;20037;-69
2022/01/08 07:12:21;;;;;;;6.63;3.05;;;;;;;3.97;100.00;100129.25;4947609;28;20079;-69
2022/01/08 07:14:46;;;;;;;7.80;3.05;;;;;;;4.06;100.00;100127.31;4957376;28;20488;-69
2022/01/08 07:17:12;;;;;;;4.75;2.30;;;;;;;4.01;100.00;100138.16;4939533;28;20040;-69
2022/01/08 07:19:40;;;;;;;9.00;3.05;;;;;;;3.94;100.00;100133.34;4943530;29;20039;-69
2022/01/08 07:22:05;;;;;;;11.48;3.85;;;;;;;3.93;100.00;100131.78;4940488;29;20035;-69
2022/01/08 07:24:30;;;;;;;6.43;3.13;;;;;;;3.97;100.00;100142.59;4940501;28;20033;-69
2022/01/08 07:26:56;;;;;;;6.90;3.13;;;;;;;3.95;100.00;100142.88;4940715;29;20562;-69
2022/01/08 07:29:21;;;;;;;8.80;2.95;;;;;;;3.98;100.00;100139.59;4945224;29;20087;-69
2022/01/08 07:31:47;;;;;;;18.08;4.20;;;;;;;3.92;100.00;100140.09;4943794;28;20119;-69
2022/01/08 07:34:12;;;;;;;6.90;3.50;;;;;;;4.01;100.00;100136.25;4936347;28;20102;-69
2022/01/08 07:36:37;;;;;;;7.32;2.80;;;;;;;4.04;100.00;100130.31;4948110;23;20055;-69
2022/01/08 07:39:03;;;;;;;9.18;4.05;;;;;;;4.03;100.00;100135.94;4945518;29;20118;-69
2022/01/08 07:41:28;;;;;;;8.48;2.88;;;;;;;4.02;100.00;100127.19;4952158;28;20053;-68
2022/01/08 07:43:54;;;;;;;11.60;3.30;;;;;;;3.99;100.00;100124.41;4945257;28;20039;-68
2022/01/08 07:46:20;;;;;;;8.70;3.65;;;;;;;4.02;100.00;100118.41;4945503;28;20137;-69
2022/01/08 07:48:45;;;;;;;6.50;3.67;;;;;;;4.04;100.00;100126.84;4943347;28;20145;-68
2022/01/08 07:51:11;;;;;;;8.90;4.10;;;;;;;4.03;100.00;100127.94;4946952;29;20149;-69
2022/01/08 07:53:37;;;;;;;10.95;3.65;;;;;;;4.04;100.00;100121.53;4944991;28;20051;-69
2022/01/08 07:56:02;;;;;;;8.85;3.85;;;;;;;4.04;100.00;100124.19;4958548;28;20079;-69
2022/01/08 07:58:28;;;;;;;7.95;3.92;;;;;;;4.03;100.00;100117.28;4949922;28;20055;-69
2022/01/08 08:00:54;;;;;;;6.93;3.60;;;;;;;4.10;100.00;100122.91;4939553;29;20542;-69
2022/01/08 08:03:23;;;;;;;6.95;3.65;;;;;;;4.06;100.00;100122.00;4950608;28;20067;-68
2022/01/08 08:05:49;;;;;;;10.05;3.75;;;;;;;4.02;100.00;100121.06;4935286;29;20377;-69
2022/01/08 08:08:19;;;;;;;8.05;3.58;;;;;;;4.08;100.00;100119.78;4953184;28;20045;-69
2022/01/08 08:10:50;;;;;;;10.00;3.63;;;;;;;4.20;100.00;100119.84;4950380;28;20049;-69
2022/01/08 08:13:20;;;;;;;9.95;5.03;;;;;;;4.08;100.00;100114.47;4944514;28;20047;-69
2022/01/08 08:15:48;;;;;;;7.80;2.78;;;;;;;4.10;100.00;100113.03;4952384;28;20074;-69
2022/01/08 08:18:14;;;;;;;17.48;4.40;;;;;;;4.10;100.00;100110.38;4951644;29;20077;-69
2022/01/08 08:20:41;;;;;;;8.00;3.38;;;;;;;4.09;100.00;100097.34;4950681;28;20030;-69
2022/01/08 08:23:07;;;;;;;7.00;3.47;;;;;;;4.32;100.00;100093.25;4951794;28;20039;-69
2022/01/08 08:25:32;;;;;;;5.57;2.80;;;;;;;4.24;100.00;100099.44;4952609;28;20061;-69
2022/01/08 08:27:58;;;;;;;7.63;3.60;;;;;;;4.22;100.00;100099.00;4953109;29;20035;-69
2022/01/08 08:30:23;;;;;;;5.82;3.08;;;;;;;4.05;100.00;100097.22;4948218;28;20548;-69
2022/01/08 08:32:49;;;;;;;6.97;2.75;;;;;;;4.15;100.00;100098.72;4949688;29;20035;-68
2022/01/08 08:35:15;;;;;;;7.20;3.13;;;;;;;4.07;100.00;100108.34;4953036;28;20117;-69
2022/01/08 08:37:41;;;;;;;8.48;3.45;;;;;;;4.04;100.00;100101.00;4944098;28;20058;-69
2022/01/08 08:40:09;;;;;;;10.40;3.53;;;;;;;4.04;100.00;100109.00;4951775;28;20027;-68
2022/01/08 08:42:35;;;;;;;4.68;2.78;;;;;;;4.07;100.00;100103.00;4948858;28;20536;-69
2022/01/08 08:45:03;;;;;;;4.75;2.92;;;;;;;4.18;100.00;100103.41;4952524;28;20098;-69
2022/01/08 08:47:29;;;;;;;7.28;3.15;;;;;;;4.08;100.00;100099.25;4951395;29;20031;-69
2022/01/08 08:49:55;;;;;;;12.48;4.15;;;;;;;4.05;100.00;100105.22;4949057;28;20403;-69
2022/01/08 08:52:21;;;;;;;9.57;3.83;;;;;;;4.05;100.00;100104.44;4951190;28;20031;-69
2022/01/08 08:54:47;;;;;;;8.13;3.15;;;;;;;4.11;100.00;100097.81;4948589;28;20554;-69
2022/01/08 08:57:12;;;;;;;8.50;2.97;;;;;;;4.14;100.00;100097.19;4952263;28;20134;-69
2022/01/08 08:59:38;;;;;;;7.45;2.88;;;;;;;4.11;100.00;100095.94;4956294;28;20110;-69
2022/01/08 09:02:04;;;;;;;10.07;3.45;;;;;;;4.08;100.00;100087.81;4945376;29;20522;-69
2022/01/08 09:04:29;;;;;;;6.93;3.50;;;;;;;4.11;100.00;100087.94;4955943;28;20591;-69
2022/01/08 09:06:57;;;;;;;11.63;3.58;;;;;;;4.17;100.00;100093.84;4956191;28;20070;-69
2022/01/08 09:09:24;;;;;;;8.45;3.17;;;;;;;4.20;100.00;100079.91;4951014;29;20051;-70
2022/01/08 09:11:49;;;;;;;7.85;2.42;;;;;;;4.21;100.00;100076.09;4954327;28;20496;-69
2022/01/08 09:14:17;;;;;;;12.45;3.47;;;;;;;4.14;100.00;100089.19;4955865;28;20031;-69
2022/01/08 09:16:48;;;;;;;5.95;3.00;;;;;;;4.21;100.00;100082.22;4949155;28;20512;-69
2022/01/08 09:19:14;;;;;;;;;;;;;;;4.31;100.00;100084.50;4953423;29;20035;-69
2022/01/08 09:21:40;;;;;;;7.70;3.15;;;;;;;4.16;100.00;100084.31;4955423;28;19961;-69
2022/01/08 09:24:05;;;;;;;8.75;3.25;;;;;;;4.19;100.00;100095.09;4956153;28;20444;-70
2022/01/08 09:26:31;;;;;;;6.80;3.10;;;;;;;4.33;100.00;100094.81;4955598;28;20440;-70
2022/01/08 09:28:56;;;;;;;10.15;3.92;;;;;;;4.37;100.00;100085.84;4956043;28;20408;-70
2022/01/08 09:31:21;;;;;;;9.50;3.67;;;;;;;4.45;100.00;100092.97;4952988;28;20529;-70
2022/01/08 09:33:47;;;;;;;10.10;3.00;;;;;;;4.37;100.00;100085.06;4954885;28;20087;-70
2022/01/08 09:36:12;;;;;;;6.05;3.03;;;;;;;4.33;100.00;100087.63;4955649;28;20431;-70
2022/01/08 09:38:38;;;;;;;9.05;3.08;;;;;;;4.36;100.00;100094.16;4956185;28;20046;-70
2022/01/08 09:41:04;;;;;;;8.05;3.35;;;;;;;4.47;100.00;100092.66;4941450;28;20098;-70
2022/01/08 09:43:30;;;;;;;6.65;3.35;;;;;;;4.47;100.00;100085.44;4953420;28;20043;-70
2022/01/08 09:45:55;;;;;;;5.55;2.10;;;;;;;4.61;100.00;100085.13;4955845;28;20476;-70
2022/01/08 09:48:21;;;;;;;5.93;2.35;;;;;;;4.56;100.00;100096.03;4955473;28;20114;-70
2022/01/08 09:50:46;;;;;;;5.72;2.88;;;;;;;4.42;100.00;100095.53;4951482;28;20031;-70
2022/01/08 09:53:12;;;;;;;7.53;3.15;;;;;;;4.45;100.00;100086.88;4945819;28;20043;-70
2022/01/08 09:55:37;;;;;;;11.90;3.22;;;;;;;4.52;100.00;100097.78;4940603;29;20031;-70
2022/01/08 09:58:03;;;;;;;5.35;2.92;;;;;;;4.58;100.00;100104.47;4955279;28;20031;-70
2022/01/08 10:00:32;;;;;;;7.47;2.97;;;;;;;4.74;100.00;100099.31;4953506;28;20067;-69
2022/01/08 10:03:15;;;;;;;7.43;3.13;;;;;;;4.58;100.00;100091.94;4949309;28;20190;-69
2022/01/08 10:05:48;;;;;;;6.53;3.05;;;;;;;4.65;100.00;100085.25;4946783;29;20073;-69
2022/01/08 10:08:15;;;;;;;5.80;3.15;;;;;;;4.64;100.00;100095.16;4954167;28;20464;-69
2022/01/08 10:10:41;;;;;;;7.90;3.08;;;;;;;4.66;100.00;100092.94;4955379;28;20030;-69
2022/01/08 10:13:21;;;;;;;8.50;3.97;;;;;;;4.50;100.00;100092.78;4951792;28;20039;-69
2022/01/08 10:18:33;;;;;;;5.30;3.05;;;;;;;4.47;100.00;100087.34;4955458;28;20118;-69
2022/01/08 10:21:02;;;;;;;7.03;3.13;;;;;;;4.56;100.00;100086.16;4947395;29;20090;-69
2022/01/08 10:23:33;;;;;;;6.10;3.28;;;;;;;4.48;100.00;100086.22;4953685;29;20089;-69
2022/01/08 10:25:59;;;;;;;;;;;;;;;4.53;100.00;100078.78;4954024;29;20130;-70
2022/01/08 10:28:38;;;;;;;7.25;2.88;;;;;;;4.51;100.00;100088.22;4954922;28;20017;-69
2022/01/08 10:31:06;;;;;;;8.57;2.95;;;;;;;4.51;100.00;100090.88;4951997;28;20031;-69
2022/01/08 10:33:31;;;;;;;6.68;3.55;;;;;;;4.57;100.00;100078.91;4946029;29;20031;-69
2022/01/08 10:35:57;;;;;;;7.25;2.60;;;;;;;4.71;100.00;100078.63;4953357;29;20043;-69
2022/01/08 10:38:26;;;;;;;9.02;3.67;;;;;;;4.83;100.00;100078.66;4954996;28;20404;-69
2022/01/08 10:40:52;;;;;;;8.68;3.33;;;;;;;4.91;100.00;100078.56;4948462;29;20127;-69
2022/01/08 10:43:29;;;;;;;4.97;2.80;;;;;;;4.97;100.00;100076.47;4952492;29;20135;-69
2022/01/08 10:46:06;;;;;;;6.60;3.67;;;;;;;4.96;100.00;100077.56;4954264;28;20039;-69
2022/01/08 10:48:32;;;;;;;6.20;3.92;;;;;;;5.07;100.00;100074.13;4950213;29;20046;-69
2022/01/08 10:51:12;;;;;;;7.72;3.80;;;;;;;5.01;100.00;100070.13;4954543;28;20512;-70
2022/01/08 10:54:15;;;;;;;10.02;3.42;;;;;;;5.12;100.00;100071.25;4953244;28;20090;-69
2022/01/08 10:56:43;;;;;;;5.20;2.70;;;;;;;5.09;100.00;100066.56;4951492;28;20047;-69
2022/01/08 10:59:28;;;;;;;8.77;3.60;;;;;;;5.18;100.00;100061.94;4954533;28;20444;-69
2022/01/08 11:01:54;;;;;;;6.53;3.58;;;;;;;5.15;100.00;100056.47;4951485;29;20362;-69
2022/01/08 11:04:31;;;;;;;9.10;3.72;;;;;;;5.20;100.00;100056.25;4951192;28;20063;-69
2022/01/08 11:06:59;;;;;;;6.95;3.15;;;;;;;5.17;100.00;100054.22;4952843;29;20042;-69
2022/01/08 11:09:29;;;;;;;8.43;3.65;;;;;;;5.26;100.00;100052.25;4954565;28;20046;-69
2022/01/08 11:11:57;;;;;;;7.78;3.35;;;;;;;5.23;100.00;100051.03;4950356;28;20039;-69
2022/01/08 11:17:29;;;;;;;5.18;2.53;;;;;;;5.20;100.00;100054.38;4954089;28;20047;-69
2022/01/08 11:20:05;;;;;;;8.15;2.88;;;;;;;5.27;100.00;100043.91;4953259;28;20424;-69
2022/01/08 11:22:33;;;;;;;6.88;3.13;;;;;;;5.42;100.00;100040.56;4946265;28;20229;-69
2022/01/08 11:25:12;;;;;;;5.70;3.38;;;;;;;5.29;100.00;100033.66;4952678;29;20027;-69
2022/01/08 11:28:13;;;;;;;6.28;2.70;;;;;;;5.26;100.00;100030.91;4946736;28;20396;-69
2022/01/08 11:30:44;;;;;;;5.80;3.05;;;;;;;5.16;100.00;100018.78;4945910;29;20031;-69
2022/01/08 11:33:27;;;;;;;;;;;;;;;5.18;100.00;100018.44;4951928;29;20043;-69
2022/01/08 11:35:57;;;;;;;9.05;2.95;;;;;;;5.15;100.00;100013.78;4937976;28;19932;-69
2022/01/08 11:38:27;;;;;;;7.50;3.05;;;;;;;5.21;100.00;100010.53;4952205;29;20047;-69
2022/01/08 11:40:57;;;;;;;5.82;2.90;;;;;;;5.16;100.00;100005.44;4953551;28;20051;-69
2022/01/08 11:43:25;;;;;;;5.43;2.83;;;;;;;5.34;100.00;100000.66;4951196;29;20066;-69
2022/01/08 11:46:15;;;;;;;5.30;2.47;;;;;;;5.40;100.00;99988.63;4950804;28;20047;-69
2022/01/08 11:48:45;;;;;;;10.43;2.80;;;;;;;5.38;100.00;99991.63;4945714;29;20046;-69